Time;durP1;ratioP1;P1;durP2;ratioP2;P2;SDS_P1;SDS_P2;PMS_P1;PMS_P2;Temp;Humidity;BMP_temperature;BMP_pressure;BME280_temperature;BME280_humidity;BME280_pressure;Samples;Min_cycle;Max_cycle;Signal;HPM_P1;HPM_P2
2023/04/09 00:01:11;;;;;;;5.95;3.28;;;13.10;99.90;;;;;;5050844;28;20495;-68
2023/04/09 00:03:37;;;;;;;6.97;2.70;;;13.10;99.90;;;;;;5051028;28;20056;-68
2023/04/09 00:06:04;;;;;;;6.50;2.97;;;13.00;99.90;;;;;;5051155;28;20396;-69
2023/04/09 00:08:32;;;;;;;5.80;3.42;;;13.00;99.90;;;;;;5050621;28;20035;-68
2023/04/09 00:10:58;;;;;;;7.13;3.25;;;12.90;99.90;;;;;;5050906;28;20044;-68
2023/04/09 00:13:25;;;;;;;6.50;3.22;;;12.80;99.90;;;;;;5051166;28;20376;-67
2023/04/09 00:15:52;;;;;;;7.88;3.47;;;12.90;99.90;;;;;;5050608;28;20014;-69
2023/04/09 00:18:18;;;;;;;6.82;3.25;;;12.80;99.90;;;;;;5050774;28;20048;-67
2023/04/09 00:20:44;;;;;;;4.87;3.13;;;12.70;99.90;;;;;;5051023;28;20028;-69
2023/04/09 00:23:10;;;;;;;4.88;3.20;;;12.70;99.90;;;;;;5051007;28;20017;-67
2023/04/09 00:25:36;;;;;;;3.73;2.60;;;12.70;99.90;;;;;;5050781;28;20044;-68
2023/04/09 00:28:02;;;;;;;6.00;3.23;;;12.80;99.90;;;;;;5050537;28;20044;-67
2023/04/09 00:30:31;;;;;;;7.23;3.40;;;12.80;99.90;;;;;;5050460;28;20104;-67
2023/04/09 00:32:57;;;;;;;5.63;3.10;;;12.70;99.90;;;;;;5050926;28;20028;-68
2023/04/09 00:35:24;;;;;;;5.68;2.72;;;12.70;99.90;;;;;;5050502;28;20051;-69
2023/04/09 00:37:51;;;;;;;6.20;2.67;;;12.70;99.90;;;;;;5050736;28;20025;-68
2023/04/09 00:40:17;;;;;;;7.70;3.13;;;12.70;99.90;;;;;;5050491;28;20063;-68
2023/04/09 00:42:43;;;;;;;7.80;3.40;;;12.70;99.90;;;;;;5052219;28;20021;-68
2023/04/09 00:45:09;;;;;;;5.33;3.23;;;12.70;99.90;;;;;;5054045;28;20025;-66
2023/04/09 00:47:37;;;;;;;5.03;3.20;;;12.60;99.90;;;;;;5054080;28;20492;-68
2023/04/09 00:50:04;;;;;;;11.35;3.60;;;12.60;99.90;;;;;;5053905;28;20037;-68
2023/04/09 00:52:31;;;;;;;5.45;3.47;;;12.50;99.90;;;;;;5054300;28;20025;-69
2023/04/09 00:55:00;;;;;;;;;;;12.50;99.90;;;;;;5054221;28;20552;-68
2023/04/09 00:57:27;;;;;;;5.70;3.10;;;12.50;99.90;;;;;;5035746;28;19956;-65
2023/04/09 00:59:53;;;;;;;;;;;12.50;99.90;;;;;;5054242;28;20492;-68
2023/04/09 01:02:19;;;;;;;8.75;2.72;;;12.60;99.90;;;;;;5053724;28;19920;-67
2023/04/09 01:04:46;;;;;;;7.60;3.17;;;12.60;99.90;;;;;;5053827;28;20021;-68
2023/04/09 01:07:21;;;;;;;;;;;12.60;99.90;;;;;;5053994;28;20021;-68
2023/04/09 01:10:00;;;;;;;5.55;2.50;;;12.70;99.90;;;;;;5054048;28;19916;-67
2023/04/09 01:12:29;;;;;;;5.57;2.60;;;12.80;99.90;;;;;;5053537;28;20036;-68
2023/04/09 01:15:06;;;;;;;8.27;3.08;;;12.80;99.90;;;;;;5035297;28;20473;-69
2023/04/09 01:17:49;;;;;;;4.80;3.03;;;12.80;99.90;;;;;;5053729;28;20021;-67
2023/04/09 01:20:29;;;;;;;5.82;3.10;;;12.70;99.90;;;;;;5053765;28;20464;-68
2023/04/09 01:22:58;;;;;;;4.85;2.80;;;12.60;99.90;;;;;;5053811;28;20040;-66
2023/04/09 01:25:47;;;;;;;4.72;2.45;;;12.70;99.90;;;;;;5053426;28;20029;-68
2023/04/09 01:28:18;;;;;;;5.53;2.15;;;12.70;99.90;;;;;;5053666;28;20115;-66
2023/04/09 01:30:49;;;;;;;4.00;2.00;;;12.80;99.90;;;;;;5053042;28;20207;-68
2023/04/09 01:33:18;;;;;;;4.35;2.13;;;12.80;99.90;;;;;;5053391;28;20330;-67
2023/04/09 01:35:47;;;;;;;5.10;2.13;;;12.90;99.90;;;;;;5053206;28;20021;-69
2023/04/09 01:38:15;;;;;;;5.00;1.95;;;12.90;99.90;;;;;;5053578;28;20079;-67
2023/04/09 01:40:42;;;;;;;6.03;2.20;;;12.90;99.90;;;;;;5052985;28;20444;-68
2023/04/09 01:43:09;;;;;;;;;;;13.00;99.90;;;;;;5053644;28;20029;-68
2023/04/09 01:45:35;;;;;;;;;;;13.00;99.90;;;;;;5053394;28;20393;-68
2023/04/09 01:48:03;;;;;;;8.90;2.25;;;12.90;99.90;;;;;;5053099;28;19912;-68
2023/04/09 01:50:29;;;;;;;6.55;1.88;;;13.00;99.90;;;;;;5035285;28;20036;-67
2023/04/09 01:52:55;;;;;;;3.92;2.05;;;13.00;99.90;;;;;;5052470;28;20035;-68
2023/04/09 01:55:21;;;;;;;4.65;1.73;;;13.00;99.90;;;;;;5052922;28;20017;-68
2023/04/09 01:57:52;;;;;;;5.07;2.00;;;13.00;99.90;;;;;;5052976;28;20048;-68
2023/04/09 02:00:19;;;;;;;5.03;1.80;;;13.00;99.90;;;;;;5052359;28;20024;-68
2023/04/09 02:02:54;;;;;;;6.40;1.98;;;13.00;99.90;;;;;;5052653;28;20037;-68
2023/04/09 02:05:25;;;;;;;5.07;2.08;;;13.00;99.90;;;;;;5053075;28;20197;-68
2023/04/09 02:07:57;;;;;;;9.50;2.10;;;13.00;99.90;;;;;;5052412;28;20041;-68
2023/04/09 02:10:26;;;;;;;3.20;1.60;;;13.00;99.90;;;;;;5052916;28;20020;-69
2023/04/09 02:12:55;;;;;;;4.97;1.85;;;13.10;99.90;;;;;;5052749;28;20099;-69
2023/04/09 02:15:22;;;;;;;4.00;1.60;;;13.00;99.90;;;;;;5052446;28;20028;-68
2023/04/09 02:17:48;;;;;;;4.40;1.85;;;13.00;99.90;;;;;;5052492;28;20525;-63
2023/04/09 02:20:18;;;;;;;6.70;1.77;;;13.00;99.90;;;;;;5052243;28;20338;-68
2023/04/09 02:22:45;;;;;;;6.38;2.13;;;13.00;99.90;;;;;;5052551;28;20025;-67
2023/04/09 02:25:11;;;;;;;3.83;1.80;;;13.00;99.90;;;;;;5052200;28;20072;-68
2023/04/09 02:27:37;;;;;;;5.53;2.05;;;13.00;99.90;;;;;;5051977;28;20068;-66
2023/04/09 02:30:04;;;;;;;2.60;1.60;;;12.90;99.90;;;;;;5052270;28;20115;-68
2023/04/09 02:32:30;;;;;;;5.63;2.10;;;12.90;99.90;;;;;;5052047;28;20051;-67
2023/04/09 02:34:56;;;;;;;4.47;1.93;;;12.90;99.90;;;;;;5034312;28;20382;-68
2023/04/09 02:37:22;;;;;;;3.88;1.80;;;12.80;99.90;;;;;;5052051;28;20055;-69
2023/04/09 02:39:48;;;;;;;6.60;1.97;;;12.80;99.90;;;;;;5051999;28;20021;-68
2023/04/09 02:42:14;;;;;;;4.13;1.90;;;12.80;99.90;;;;;;5051980;28;20100;-67
2023/04/09 02:44:40;;;;;;;6.00;2.10;;;12.80;99.90;;;;;;5051855;28;20025;-68
2023/04/09 02:47:06;;;;;;;6.37;2.17;;;12.80;99.90;;;;;;5052038;28;20029;-68
2023/04/09 02:49:32;;;;;;;3.90;2.00;;;12.70;99.90;;;;;;5051936;28;20274;-69
2023/04/09 02:51:58;;;;;;;5.03;2.30;;;12.70;99.90;;;;;;5033819;28;20040;-67
2023/04/09 02:54:24;;;;;;;6.50;2.47;;;12.70;99.90;;;;;;5052217;28;20275;-68
2023/04/09 02:56:50;;;;;;;10.30;2.90;;;12.60;99.90;;;;;;5051669;28;20029;-67
2023/04/09 02:59:16;;;;;;;4.27;2.03;;;12.60;99.90;;;;;;5051632;28;20032;-69
2023/04/09 03:01:42;;;;;;;4.70;2.10;;;12.60;99.90;;;;;;5051787;28;20504;-67
2023/04/09 03:04:08;;;;;;;4.78;2.17;;;12.60;99.90;;;;;;5051569;28;20112;-67
2023/04/09 03:06:35;;;;;;;9.23;2.50;;;12.50;99.90;;;;;;5032927;28;20037;-68
2023/04/09 03:09:01;;;;;;;4.47;2.33;;;12.50;99.90;;;;;;5033487;28;20048;-68
2023/04/09 03:11:27;;;;;;;3.85;2.35;;;12.50;99.90;;;;;;5051397;28;20251;-68
2023/04/09 03:13:53;;;;;;;4.03;2.40;;;12.40;99.90;;;;;;5051857;28;20481;-69
2023/04/09 03:16:19;;;;;;;5.40;2.65;;;12.40;99.90;;;;;;5051219;28;20453;-67
2023/04/09 03:18:45;;;;;;;3.40;1.80;;;12.40;99.90;;;;;;5051158;28;20103;-69
2023/04/09 03:21:12;;;;;;;4.73;2.10;;;12.30;99.90;;;;;;5051793;28;20032;-67
2023/04/09 03:23:38;;;;;;;6.05;2.33;;;12.40;99.90;;;;;;5033801;28;20263;-68
2023/04/09 03:26:05;;;;;;;6.40;2.27;;;12.40;99.90;;;;;;5051326;28;20354;-67
2023/04/09 03:28:31;;;;;;;6.22;2.10;;;12.30;99.90;;;;;;5051140;28;20330;-69
2023/04/09 03:30:57;;;;;;;5.90;2.27;;;12.30;99.90;;;;;;5051026;28;20020;-67
2023/04/09 03:33:24;;;;;;;5.33;2.00;;;12.30;99.90;;;;;;5051247;28;20751;-68
2023/04/09 03:35:50;;;;;;;5.95;2.28;;;12.30;99.90;;;;;;5051443;28;20104;-68
2023/04/09 03:38:18;;;;;;;4.65;2.17;;;12.30;99.90;;;;;;5050466;28;20358;-66
2023/04/09 03:40:44;;;;;;;4.75;2.22;;;12.40;99.90;;;;;;5050528;28;20483;-68
2023/04/09 03:43:10;;;;;;;8.27;2.38;;;12.40;99.90;;;;;;5050070;28;20021;-68
2023/04/09 03:45:36;;;;;;;5.65;2.40;;;12.40;99.90;;;;;;5051051;28;20032;-69
2023/04/09 03:48:02;;;;;;;9.00;2.20;;;12.40;99.90;;;;;;5050989;28;20392;-69
2023/04/09 03:50:28;;;;;;;5.67;2.27;;;12.40;99.90;;;;;;5051064;28;20364;-69
2023/04/09 03:52:55;;;;;;;7.07;2.35;;;12.40;99.90;;;;;;5051043;28;20264;-69
2023/04/09 03:55:21;;;;;;;;;;;12.40;99.90;;;;;;5051435;28;20101;-68
2023/04/09 03:57:47;;;;;;;6.63;2.30;;;12.40;99.90;;;;;;5050966;28;19914;-68
2023/04/09 04:00:15;;;;;;;5.37;2.23;;;12.40;99.90;;;;;;5050843;28;20326;-69
2023/04/09 04:02:41;;;;;;;8.63;2.20;;;12.40;99.90;;;;;;5050925;28;20032;-68
2023/04/09 04:05:07;;;;;;;5.50;2.20;;;12.40;99.90;;;;;;5033002;28;20326;-67
2023/04/09 04:07:33;;;;;;;8.15;2.70;;;12.40;99.90;;;;;;5032698;28;20033;-68
2023/04/09 04:09:59;;;;;;;6.30;2.30;;;12.40;99.90;;;;;;5050847;28;20021;-69
2023/04/09 04:12:25;;;;;;;4.93;2.30;;;12.40;99.90;;;;;;5050722;28;20032;-68
2023/04/09 04:14:51;;;;;;;8.68;2.60;;;12.40;99.90;;;;;;5032564;28;20116;-68
2023/04/09 04:17:17;;;;;;;6.78;2.17;;;12.40;99.90;;;;;;5052246;28;20021;-68
2023/04/09 04:19:47;;;;;;;6.43;2.38;;;12.40;99.90;;;;;;5053565;28;20099;-66
2023/04/09 04:22:13;;;;;;;5.95;2.80;;;12.40;99.90;;;;;;5053418;28;20021;-68
2023/04/09 04:24:39;;;;;;;5.07;2.30;;;12.40;99.90;;;;;;5053817;28;20128;-68
2023/04/09 04:27:05;;;;;;;7.00;2.57;;;12.40;99.90;;;;;;5054455;28;20032;-69
2023/04/09 04:29:31;;;;;;;8.33;2.50;;;12.40;99.90;;;;;;5036205;28;20021;-67
2023/04/09 04:31:57;;;;;;;9.80;2.80;;;12.30;99.90;;;;;;5054520;28;20082;-68
2023/04/09 04:34:24;;;;;;;7.13;2.57;;;12.30;99.90;;;;;;5054388;28;20114;-69
2023/04/09 04:36:50;;;;;;;;;;;12.30;99.90;;;;;;5036044;28;20715;-70
2023/04/09 04:39:16;;;;;;;5.47;2.63;;;12.30;99.90;;;;;;5053407;28;19940;-69
2023/04/09 04:41:45;;;;;;;7.30;3.33;;;12.30;99.90;;;;;;5053953;28;20031;-71
2023/04/09 04:44:12;;;;;;;5.57;2.22;;;12.40;99.90;;;;;;5054145;28;20029;-70
2023/04/09 04:46:38;;;;;;;5.72;2.53;;;12.40;99.90;;;;;;5053954;28;20029;-69
2023/04/09 04:49:04;;;;;;;7.00;2.50;;;12.40;99.90;;;;;;5035954;28;20029;-71
2023/04/09 04:51:31;;;;;;;5.05;2.67;;;12.50;99.90;;;;;;5053934;28;20029;-69
2023/04/09 04:53:57;;;;;;;8.70;2.80;;;12.40;99.90;;;;;;5053987;28;20076;-70
2023/04/09 04:56:23;;;;;;;8.70;2.73;;;12.40;99.90;;;;;;5054131;28;20025;-70
2023/04/09 04:58:49;;;;;;;9.35;3.17;;;12.50;99.90;;;;;;5054130;28;20028;-71
2023/04/09 05:01:15;;;;;;;8.70;2.90;;;12.50;99.90;;;;;;5053810;28;20087;-71
2023/04/09 05:03:41;;;;;;;6.33;2.50;;;12.60;99.90;;;;;;5054091;28;20052;-71
2023/04/09 05:06:07;;;;;;;5.95;2.78;;;12.60;99.90;;;;;;5053918;28;20311;-70
2023/04/09 05:08:34;;;;;;;10.20;2.92;;;12.70;99.90;;;;;;5035374;28;20029;-68
2023/04/09 05:11:01;;;;;;;4.95;2.80;;;12.80;99.90;;;;;;5053628;28;20060;-69
2023/04/09 05:13:27;;;;;;;7.88;2.63;;;12.80;99.90;;;;;;5053677;28;20025;-69
2023/04/09 05:15:53;;;;;;;6.63;3.20;;;12.90;99.90;;;;;;5053489;28;20033;-70
2023/04/09 05:18:19;;;;;;;10.55;2.33;;;12.90;99.90;;;;;;5053351;28;20048;-70
2023/04/09 05:20:45;;;;;;;10.20;2.58;;;13.00;99.90;;;;;;5053658;28;20037;-71
2023/04/09 05:23:11;;;;;;;4.60;2.70;;;13.00;99.90;;;;;;5053666;28;20051;-71
2023/04/09 05:25:38;;;;;;;8.48;2.42;;;13.40;99.90;;;;;;5053472;28;20035;-68
2023/04/09 05:28:04;;;;;;;5.85;2.05;;;14.40;99.90;;;;;;5052761;28;20519;-70
2023/04/09 05:30:30;;;;;;;6.93;2.30;;;16.20;99.90;;;;;;5053228;28;20025;-70
2023/04/09 05:32:56;;;;;;;8.60;3.27;;;17.80;99.90;;;;;;5053450;28;20272;-69
2023/04/09 05:35:22;;;;;;;6.23;1.97;;;19.20;99.90;;;;;;5053749;28;20025;-71
2023/04/09 05:37:48;;;;;;;5.72;2.08;;;20.30;99.90;;;;;;5053458;28;20325;-71
2023/04/09 05:40:15;;;;;;;6.15;1.90;;;20.00;99.90;;;;;;5053204;28;20022;-70
2023/04/09 05:42:41;;;;;;;7.20;1.70;;;19.90;99.90;;;;;;5053064;28;20451;-70
2023/04/09 05:45:08;;;;;;;7.90;1.70;;;18.70;99.90;;;;;;5053021;28;20021;-70
2023/04/09 05:47:34;;;;;;;6.70;1.90;;;18.80;99.90;;;;;;5053047;28;20036;-70
2023/04/09 05:50:00;;;;;;;5.75;1.75;;;19.10;99.90;;;;;;5053211;28;20043;-70
2023/04/09 05:52:27;;;;;;;12.70;2.08;;;18.90;99.90;;;;;;5052894;28;20433;-71
2023/04/09 05:54:53;;;;;;;;;;;18.70;99.90;;;;;;5053187;28;20017;-69
2023/04/09 05:57:19;;;;;;;8.43;1.95;;;18.80;99.90;;;;;;5052820;28;20395;-70
2023/04/09 05:59:45;;;;;;;6.47;2.00;;;18.20;99.90;;;;;;5052666;28;20025;-71
2023/04/09 06:02:11;;;;;;;3.90;1.92;;;17.70;99.90;;;;;;5034577;28;20086;-70
2023/04/09 06:04:37;;;;;;;10.25;2.40;;;17.10;99.90;;;;;;5052660;28;20108;-69
2023/04/09 06:07:03;;;;;;;7.10;2.30;;;16.70;99.90;;;;;;5052412;28;20108;-71
2023/04/09 06:09:30;;;;;;;10.07;2.00;;;16.40;99.90;;;;;;5052325;28;20076;-70
2023/04/09 06:11:56;;;;;;;4.68;1.90;;;16.10;99.90;;;;;;5052342;28;20091;-71
2023/04/09 06:14:22;;;;;;;4.60;1.60;;;16.80;99.90;;;;;;5051895;28;20147;-70
2023/04/09 06:16:48;;;;;;;5.53;1.80;;;18.40;99.90;;;;;;5052003;28;20496;-71
2023/04/09 06:19:15;;;;;;;6.28;1.80;;;19.10;99.90;;;;;;5033757;28;20291;-70
2023/04/09 06:21:41;;;;;;;7.53;2.10;;;18.80;99.90;;;;;;5034077;28;20029;-68
2023/04/09 06:24:07;;;;;;;6.70;1.90;;;18.40;99.90;;;;;;5033809;28;20025;-70
2023/04/09 06:26:33;;;;;;;8.20;1.95;;;19.40;99.90;;;;;;5051716;28;20044;-70
2023/04/09 06:28:59;;;;;;;9.70;2.25;;;20.60;99.90;;;;;;5052162;28;20025;-71
2023/04/09 06:31:26;;;;;;;7.47;2.03;;;21.90;99.90;;;;;;5051396;28;20160;-71
2023/04/09 06:33:52;;;;;;;6.57;1.67;;;23.80;99.90;;;;;;5051544;28;20025;-71
2023/04/09 06:36:18;;;;;;;5.70;1.65;;;24.80;99.90;;;;;;5052187;28;20025;-71
2023/04/09 06:38:44;;;;;;;7.93;1.90;;;26.10;99.90;;;;;;5052071;28;20077;-71
2023/04/09 06:41:11;;;;;;;7.53;1.80;;;26.30;99.90;;;;;;5052019;28;20488;-70
2023/04/09 06:43:37;;;;;;;5.63;1.60;;;26.90;99.90;;;;;;5052258;28;20020;-69
2023/04/09 06:46:03;;;;;;;7.05;1.65;;;27.00;99.90;;;;;;5051831;28;20029;-71
2023/04/09 06:48:30;;;;;;;7.10;1.52;;;26.50;99.90;;;;;;5051969;28;20045;-70
2023/04/09 06:50:56;;;;;;;9.60;1.90;;;26.80;99.90;;;;;;5051850;28;20128;-69
2023/04/09 06:53:22;;;;;;;10.15;1.80;;;27.90;99.90;;;;;;5051179;28;20059;-70
2023/04/09 06:55:48;;;;;;;8.70;1.50;;;28.90;99.90;;;;;;5051365;28;20100;-71
2023/04/09 06:58:15;;;;;;;7.50;1.67;;;28.70;99.90;;;;;;5051510;28;20453;-70
2023/04/09 07:00:41;;;;;;;8.05;1.75;;;27.20;99.90;;;;;;5051474;28;20032;-71
2023/04/09 07:03:07;;;;;;;7.90;1.55;;;26.70;99.90;;;;;;5050786;28;20021;-72
2023/04/09 07:05:35;;;;;;;12.63;1.58;;;27.40;99.90;;;;;;5048818;28;20104;-71
2023/04/09 07:08:01;;;;;;;8.05;2.03;;;27.40;99.90;;;;;;5031958;28;20098;-71
2023/04/09 07:10:28;;;;;;;6.43;1.40;;;27.70;99.90;;;;;;5050479;28;20159;-70
2023/04/09 07:12:55;;;;;;;6.53;1.50;;;28.30;99.90;;;;;;5050263;28;20021;-71
2023/04/09 07:15:21;;;;;;;6.80;1.40;;;29.20;99.90;;;;;;5050295;28;20025;-71
2023/04/09 07:17:47;;;;;;;;;;;30.00;99.90;;;;;;5050685;28;20020;-72
2023/04/09 07:20:13;;;;;;;12.90;1.63;;;29.90;99.90;;;;;;5050326;28;19920;-70
2023/04/09 07:22:39;;;;;;;;;;;30.20;99.90;;;;;;5051277;28;20116;-70
2023/04/09 07:25:07;;;;;;;11.25;1.90;;;29.90;99.90;;;;;;5051118;28;19998;-72
2023/04/09 07:27:36;;;;;;;9.55;1.70;;;27.90;99.90;;;;;;5050902;28;20029;-71
2023/04/09 07:30:02;;;;;;;7.97;1.52;;;26.50;99.90;;;;;;5051042;28;20021;-71
2023/04/09 07:32:28;;;;;;;;;;;26.20;99.90;;;;;;5051523;28;20155;-71
2023/04/09 07:34:54;;;;;;;5.50;1.60;;;25.30;99.90;;;;;;5051277;28;20248;-71
2023/04/09 07:37:20;;;;;;;7.30;2.03;;;23.60;99.90;;;;;;5051193;28;20081;-70
2023/04/09 07:39:47;;;;;;;7.75;1.73;;;22.60;99.90;;;;;;5051223;28;20033;-71
2023/04/09 07:42:13;;;;;;;;;;;22.60;99.90;;;;;;5033528;28;20017;-72
2023/04/09 07:44:39;;;;;;;;;;;22.70;99.90;;;;;;5051955;28;19983;-70
2023/04/09 07:47:06;;;;;;;5.70;1.45;;;22.90;99.90;;;;;;5051049;28;19996;-70
2023/04/09 07:49:34;;;;;;;7.20;1.40;;;22.90;99.90;;;;;;5050786;28;20051;-70
2023/04/09 07:52:00;;;;;;;5.47;1.40;;;22.90;99.90;;;;;;5053251;28;20135;-71
2023/04/09 07:54:27;;;;;;;4.85;1.27;;;22.60;99.90;;;;;;5055028;28;20021;-71
2023/04/09 07:56:53;;;;;;;7.60;1.50;;;22.70;99.90;;;;;;5055117;28;20364;-72
2023/04/09 07:59:19;;;;;;;5.70;1.25;;;22.30;99.90;;;;;;5054751;28;20090;-71
2023/04/09 08:01:45;;;;;;;5.05;1.17;;;21.90;99.90;;;;;;5054533;28;20025;-69
2023/04/09 08:04:11;;;;;;;4.20;1.45;;;21.80;99.90;;;;;;5054865;28;20028;-70
2023/04/09 08:06:38;;;;;;;4.90;1.20;;;21.90;99.90;;;;;;5054969;28;20094;-69
2023/04/09 08:09:04;;;;;;;3.15;0.88;;;21.40;99.90;;;;;;5054612;28;20391;-71
2023/04/09 08:11:30;;;;;;;5.47;1.10;;;21.60;99.90;;;;;;5054598;28;20067;-70
2023/04/09 08:13:56;;;;;;;2.50;0.95;;;21.10;99.90;;;;;;5054759;28;20040;-69
2023/04/09 08:16:23;;;;;;;5.15;1.27;;;20.90;99.90;;;;;;5054892;28;20346;-70
2023/04/09 08:18:52;;;;;;;4.45;1.20;;;20.70;99.90;;;;;;5054837;28;20059;-69
2023/04/09 08:21:19;;;;;;;7.88;1.35;;;21.00;99.90;;;;;;5055145;28;20611;-71
2023/04/09 08:23:45;;;;;;;;;;;21.10;99.90;;;;;;5055145;28;20024;-72
2023/04/09 08:26:12;;;;;;;3.33;1.15;;;21.40;99.90;;;;;;5055318;28;20355;-71
2023/04/09 08:28:38;;;;;;;3.92;1.10;;;21.70;99.90;;;;;;5054949;28;20032;-72
2023/04/09 08:31:05;;;;;;;4.63;1.15;;;21.40;99.90;;;;;;5054734;28;20123;-70
2023/04/09 08:33:31;;;;;;;3.58;0.90;;;20.70;99.90;;;;;;5055094;28;20024;-71
2023/04/09 08:35:57;;;;;;;3.58;1.10;;;20.50;99.90;;;;;;5054199;28;20389;-71
2023/04/09 08:38:23;;;;;;;4.93;1.20;;;20.70;99.90;;;;;;5054757;28;20094;-71
2023/04/09 08:40:49;;;;;;;4.60;1.10;;;21.00;99.90;;;;;;5054733;28;20392;-72
2023/04/09 08:43:17;;;;;;;4.75;1.00;;;21.00;99.90;;;;;;5054727;28;20025;-70
2023/04/09 08:45:44;;;;;;;4.07;1.00;;;21.40;99.90;;;;;;5054315;28;20025;-70
2023/04/09 08:48:12;;;;;;;3.83;1.02;;;21.30;99.90;;;;;;5054056;28;20037;-70
2023/04/09 08:50:38;;;;;;;3.78;1.00;;;21.20;99.90;;;;;;5053851;28;20131;-71
2023/04/09 08:53:07;;;;;;;3.78;0.98;;;21.30;99.90;;;;;;5054191;28;20025;-69
2023/04/09 08:55:39;;;;;;;4.18;1.10;;;21.10;99.90;;;;;;5053863;28;20021;-71
2023/04/09 08:58:09;;;;;;;3.47;0.90;;;20.60;99.90;;;;;;5053862;28;20025;-69
2023/04/09 09:00:36;;;;;;;3.53;1.10;;;20.20;99.90;;;;;;5053932;28;20057;-70
2023/04/09 09:03:07;;;;;;;3.63;0.90;;;20.10;99.90;;;;;;5052826;28;20119;-69
2023/04/09 09:05:41;;;;;;;3.00;0.90;;;20.30;99.90;;;;;;5053801;28;20017;-71
2023/04/09 09:08:09;;;;;;;3.42;1.00;;;20.60;99.90;;;;;;5053725;28;20056;-69
2023/04/09 09:10:45;;;;;;;5.93;1.15;;;20.70;99.90;;;;;;5053592;28;20037;-69
2023/04/09 09:13:25;;;;;;;3.42;0.80;;;20.80;99.90;;;;;;5053791;28;20201;-70
2023/04/09 09:16:10;;;;;;;2.78;1.00;;;20.70;99.90;;;;;;5053234;28;20025;-69
2023/04/09 09:18:42;;;;;;;3.78;1.00;;;20.90;99.90;;;;;;5053538;28;20056;-69
2023/04/09 09:21:12;;;;;;;4.05;0.80;;;20.50;99.90;;;;;;5053615;28;20025;-70
2023/04/09 09:23:39;;;;;;;7.75;0.90;;;20.00;99.90;;;;;;5053744;28;20120;-71
2023/04/09 09:26:23;;;;;;;7.80;1.13;;;20.00;99.90;;;;;;5053496;28;20100;-70
2023/04/09 09:28:49;;;;;;;4.53;1.23;;;20.10;99.90;;;;;;5053593;28;20123;-70
2023/04/09 09:31:17;;;;;;;3.75;0.80;;;20.20;99.90;;;;;;5053110;28;20385;-71
2023/04/09 09:33:43;;;;;;;2.40;0.90;;;20.30;99.90;;;;;;5052976;28;20098;-70
2023/04/09 09:36:10;;;;;;;7.72;1.20;;;20.40;99.90;;;;;;5053006;28;20057;-71
2023/04/09 09:38:53;;;;;;;3.28;0.80;;;19.80;99.90;;;;;;5053185;28;20452;-69
2023/04/09 09:41:19;;;;;;;3.40;0.85;;;19.60;99.90;;;;;;5034921;28;20307;-70
2023/04/09 09:43:46;;;;;;;3.75;1.45;;;19.20;99.90;;;;;;5052887;28;20032;-69
2023/04/09 09:46:12;;;;;;;4.00;1.15;;;19.10;99.90;;;;;;5052767;28;20021;-71
2023/04/09 09:48:38;;;;;;;3.00;1.00;;;19.20;99.90;;;;;;5053234;28;20151;-70
2023/04/09 09:51:12;;;;;;;3.70;0.80;;;18.50;99.90;;;;;;5053246;28;20053;-71
2023/04/09 09:53:42;;;;;;;4.20;1.10;;;18.40;99.90;;;;;;5052931;28;20028;-71
2023/04/09 09:56:15;;;;;;;3.22;1.15;;;18.80;99.90;;;;;;5052803;28;20449;-71
2023/04/09 09:59:23;;;;;;;4.50;0.88;;;19.10;99.90;;;;;;5052838;28;20025;-70
2023/04/09 10:02:03;;;;;;;4.22;1.10;;;19.20;99.90;;;;;;4971501;28;20086;-71
2023/04/09 10:04:33;;;;;;;7.03;1.45;;;19.90;99.90;;;;;;4971716;28;20533;-70
2023/04/09 10:07:03;;;;;;;6.18;1.50;;;19.90;99.90;;;;;;4971640;28;20042;-70
2023/04/09 10:09:31;;;;;;;3.72;1.20;;;19.80;99.90;;;;;;4971704;28;20042;-70
2023/04/09 10:12:01;;;;;;;5.45;1.60;;;19.60;99.90;;;;;;4971451;28;20027;-70
2023/04/09 10:14:28;;;;;;;4.97;1.40;;;19.70;99.90;;;;;;4955028;28;20027;-70
2023/04/09 10:16:54;;;;;;;7.22;1.40;;;19.40;99.90;;;;;;4971537;28;20027;-71
2023/04/09 10:19:21;;;;;;;3.70;1.10;;;19.20;99.90;;;;;;4971917;28;20066;-71
2023/04/09 10:21:55;;;;;;;3.97;1.40;;;18.80;99.90;;;;;;4971680;28;20023;-70
2023/04/09 10:24:21;;;;;;;3.72;1.50;;;18.80;99.90;;;;;;4971879;28;20057;-70
2023/04/09 10:26:48;;;;;;;3.10;1.20;;;18.70;99.90;;;;;;4971470;28;20034;-70
2023/04/09 10:29:15;;;;;;;3.92;1.05;;;18.80;99.90;;;;;;4955099;28;20098;-70
2023/04/09 10:32:02;;;;;;;3.70;1.20;;;19.10;99.90;;;;;;4971216;28;20398;-71
2023/04/09 10:34:28;;;;;;;7.88;1.20;;;19.50;99.90;;;;;;4955614;28;20116;-71
2023/04/09 10:36:59;;;;;;;3.70;1.30;;;19.70;99.90;;;;;;5012477;28;20327;-70
2023/04/09 10:39:28;;;;;;;4.53;1.40;;;20.00;99.90;;;;;;5010991;28;20026;-71
2023/04/09 10:41:55;;;;;;;5.40;0.90;;;20.00;99.90;;;;;;5025537;28;20013;-68
2023/04/09 10:44:25;;;;;;;7.55;1.35;;;20.30;99.90;;;;;;5032313;28;20056;-70
2023/04/09 10:46:54;;;;;;;9.40;1.50;;;20.40;99.90;;;;;;5031908;28;20091;-68
2023/04/09 10:49:25;;;;;;;6.32;1.65;;;20.10;99.90;;;;;;5032207;28;20029;-71
2023/04/09 10:52:01;;;;;;;7.90;1.63;;;20.00;99.90;;;;;;5032283;28;20029;-70
2023/04/09 10:54:33;;;;;;;4.10;1.10;;;20.10;99.90;;;;;;5032320;28;20029;-69
2023/04/09 10:57:12;;;;;;;3.97;1.20;;;19.90;99.90;;;;;;5031829;28;20025;-69
2023/04/09 10:59:44;;;;;;;5.53;1.20;;;19.70;99.90;;;;;;5032097;28;20072;-70
2023/04/09 11:02:38;;;;;;;5.10;1.10;;;19.60;99.90;;;;;;5031817;28;20036;-70
2023/04/09 11:05:19;;;;;;;6.15;1.20;;;19.00;99.90;;;;;;5031882;28;20030;-70
2023/04/09 11:08:04;;;;;;;5.38;1.25;;;18.60;99.90;;;;;;5031934;28;20076;-70
2023/04/09 11:10:31;;;;;;;4.82;1.38;;;19.10;99.90;;;;;;5031810;28;20358;-71
2023/04/09 11:12:57;;;;;;;5.72;1.15;;;19.60;99.90;;;;;;5031709;28;20415;-70
2023/04/09 11:15:23;;;;;;;3.60;1.10;;;20.00;99.90;;;;;;5031704;28;20029;-71
2023/04/09 11:17:49;;;;;;;5.45;1.10;;;20.10;99.90;;;;;;5031546;28;20101;-67
2023/04/09 11:20:23;;;;;;;6.63;1.23;;;19.80;99.90;;;;;;5050028;28;20041;-68
2023/04/09 11:22:51;;;;;;;3.83;0.90;;;19.50;99.90;;;;;;5052000;28;20036;-68
2023/04/09 11:25:25;;;;;;;7.97;1.10;;;19.60;99.90;;;;;;5050872;28;20021;-67
2023/04/09 11:27:52;;;;;;;2.45;1.00;;;19.90;99.90;;;;;;5051377;28;20067;-67
2023/04/09 11:30:18;;;;;;;4.10;1.30;;;19.10;99.90;;;;;;5051320;28;20017;-67
2023/04/09 11:32:49;;;;;;;3.05;1.13;;;19.00;99.90;;;;;;5051176;28;20029;-68
2023/04/09 11:35:18;;;;;;;5.93;0.90;;;19.50;99.90;;;;;;5051366;28;20036;-68
2023/04/09 11:37:45;;;;;;;3.97;0.93;;;19.70;99.90;;;;;;5033251;28;20021;-68
2023/04/09 11:40:23;;;;;;;5.22;1.10;;;19.60;99.90;;;;;;5051369;28;20029;-67
2023/04/09 11:42:54;;;;;;;5.00;0.93;;;19.20;99.90;;;;;;5033080;28;20037;-67
2023/04/09 11:45:28;;;;;;;2.33;0.80;;;19.40;99.90;;;;;;5051449;28;20021;-68
2023/04/09 11:47:55;;;;;;;3.00;1.00;;;19.70;99.90;;;;;;5050916;28;20025;-67
2023/04/09 11:50:21;;;;;;;3.90;0.90;;;20.00;99.90;;;;;;5051507;28;20025;-67
2023/04/09 11:52:48;;;;;;;4.85;0.90;;;20.40;99.90;;;;;;5051220;28;20021;-71
2023/04/09 11:55:25;;;;;;;1.98;0.80;;;20.30;99.90;;;;;;5051518;28;20029;-69
2023/04/09 11:57:53;;;;;;;3.58;1.20;;;19.60;99.90;;;;;;5051542;28;20043;-69
2023/04/09 12:00:20;;;;;;;2.38;1.00;;;19.30;99.90;;;;;;5051225;28;20021;-69
2023/04/09 12:02:47;;;;;;;3.05;1.30;;;19.00;99.90;;;;;;5050993;28;20028;-71
2023/04/09 12:05:27;;;;;;;2.00;0.80;;;19.30;99.90;;;;;;5051020;28;20017;-70
2023/04/09 12:07:57;;;;;;;3.17;1.27;;;19.70;99.90;;;;;;5051184;28;20033;-70
2023/04/09 12:10:28;;;;;;;2.75;1.30;;;19.60;99.90;;;;;;5050992;28;20051;-71
2023/04/09 12:12:55;;;;;;;2.95;1.30;;;19.30;99.90;;;;;;5051163;28;20079;-70
2023/04/09 12:15:23;;;;;;;2.47;1.00;;;19.00;99.90;;;;;;5051317;28;20507;-70
2023/04/09 12:17:53;;;;;;;3.83;1.25;;;18.80;99.90;;;;;;5050918;28;20059;-71
2023/04/09 12:20:35;;;;;;;3.75;1.10;;;19.10;99.90;;;;;;5032775;28;20063;-70
2023/04/09 12:23:03;;;;;;;5.78;1.45;;;19.30;99.90;;;;;;5050999;28;20059;-70
2023/04/09 12:25:31;;;;;;;2.75;1.10;;;18.80;99.90;;;;;;5050846;28;20055;-70
2023/04/09 12:27:58;;;;;;;2.85;1.10;;;19.00;99.90;;;;;;5050860;28;20150;-71
2023/04/09 12:30:24;;;;;;;;;;;19.60;99.90;;;;;;5051351;28;20024;-70
2023/04/09 12:32:51;;;;;;;3.95;1.35;;;19.60;99.90;;;;;;5050791;28;19912;-70
2023/04/09 12:35:18;;;;;;;3.80;1.00;;;19.30;99.90;;;;;;5050836;28;20025;-71
2023/04/09 12:37:46;;;;;;;4.57;1.35;;;19.10;99.90;;;;;;5052764;28;20097;-71
2023/04/09 12:40:13;;;;;;;2.75;1.02;;;19.10;99.90;;;;;;5036455;28;20500;-70
2023/04/09 12:42:40;;;;;;;3.33;1.10;;;19.00;99.90;;;;;;5054523;28;20148;-70
2023/04/09 12:45:12;;;;;;;3.35;1.10;;;19.10;99.90;;;;;;5054431;28;20428;-70
2023/04/09 12:47:38;;;;;;;3.30;1.08;;;19.00;99.90;;;;;;5035833;28;20120;-69
2023/04/09 12:50:06;;;;;;;1.83;0.90;;;19.20;99.90;;;;;;5054220;28;20036;-70
2023/04/09 12:52:33;;;;;;;1.92;0.90;;;19.70;99.90;;;;;;5054464;28;20029;-71
2023/04/09 12:55:01;;;;;;;2.63;0.90;;;20.10;99.90;;;;;;5054150;28;20029;-71